Allensville, Ohio
Current Conditions -  °F | °C
As of 5:35 AM on Thursday 27 Nov 2014 (Local Time) from KUNI Reporting Station
Broken Clouds Broken Clouds  
Wind Chill: 28°   Ceiling: 12000
Heat Index: 28°   Visibility: 7mi
Dew Point: 26°   Wind: 3mph
Humidity: 89%   Direction: 270°W
Pressure: 30.06"   Gusts: NA
Location:  39.2719°N, 82.4596°W
Report Text: KUNI 271035Z AUTO 27003KT 7SM SCT031 BKN120 M02/M04 A3006 RMK AO2 T10201036
Loading
Personal Weather Stations






























Interactive Weather Map New forecast layout! Learn more

10-Day Weather Forecast

Advertisements
Track Severe Weather on mobile